createdAt,value
2019-03-20T00:00:32.075Z,1.50
2019-03-20T00:03:01.461Z,1.50
2019-03-20T00:05:30.760Z,1.50
2019-03-20T00:08:00.140Z,1.50
2019-03-20T00:10:29.951Z,1.40
2019-03-20T00:12:59.267Z,1.40
2019-03-20T00:15:28.569Z,1.40
2019-03-20T00:17:57.881Z,1.40
2019-03-20T00:20:27.260Z,1.30
2019-03-20T00:22:56.585Z,1.30
2019-03-20T00:25:25.903Z,1.20
2019-03-20T00:27:55.210Z,1.20
2019-03-20T00:30:24.601Z,1.20
2019-03-20T00:32:53.980Z,1.20
2019-03-20T00:35:23.364Z,1.20
2019-03-20T00:37:52.752Z,1.20
2019-03-20T00:40:22.062Z,1.10
2019-03-20T00:42:51.370Z,1.10
2019-03-20T00:45:21.518Z,1.00
2019-03-20T00:47:50.920Z,1.00
2019-03-20T00:50:20.785Z,0.90
2019-03-20T00:52:50.099Z,0.90
2019-03-20T00:55:20.552Z,0.80
2019-03-20T00:57:49.866Z,0.80
2019-03-20T01:00:21.485Z,0.70
2019-03-20T01:02:51.030Z,0.60
2019-03-20T01:05:21.381Z,0.60
2019-03-20T01:07:50.704Z,0.50
2019-03-20T01:10:24.163Z,0.50
2019-03-20T01:12:53.644Z,0.40
2019-03-20T01:15:22.929Z,0.40
2019-03-20T01:17:53.319Z,0.40
2019-03-20T01:20:23.664Z,0.40
2019-03-20T01:22:52.973Z,0.50
2019-03-20T01:25:23.454Z,0.40
2019-03-20T01:27:52.762Z,0.40
2019-03-20T01:30:36.004Z,0.40
2019-03-20T01:33:10.080Z,0.40
2019-03-20T01:35:39.827Z,0.30
2019-03-20T01:38:09.682Z,0.30
2019-03-20T01:40:40.596Z,0.20
2019-03-20T01:43:10.068Z,0.20
2019-03-20T01:45:39.456Z,0.10
2019-03-20T01:48:08.833Z,0.10
2019-03-20T01:50:38.147Z,0.10
2019-03-20T01:53:09.637Z,0.10
2019-03-20T01:55:38.937Z,0.10
2019-03-20T01:58:08.259Z,0.10
2019-03-20T02:00:37.932Z,0.10
2019-03-20T02:03:07.710Z,0.10
2019-03-20T02:05:37.088Z,0.00
2019-03-20T02:08:06.493Z,0.00
2019-03-20T02:10:35.913Z,0.00
2019-03-20T02:13:05.378Z,0.10
2019-03-20T02:15:39.430Z,0.10
2019-03-20T02:18:07.410Z,0.10
2019-03-20T02:20:39.574Z,0.10
2019-03-20T02:23:08.587Z,0.10
2019-03-20T02:25:39.526Z,0.10
2019-03-20T02:28:08.831Z,0.00
2019-03-20T02:30:38.149Z,0.10
2019-03-20T02:33:07.457Z,0.00
2019-03-20T02:35:50.715Z,0.00
2019-03-20T02:38:07.849Z,-0.10
2019-03-20T02:40:37.207Z,-0.10
2019-03-20T02:43:06.512Z,-0.10
2019-03-20T02:45:35.921Z,-0.10
2019-03-20T02:48:05.283Z,-0.20
2019-03-20T02:50:35.522Z,-0.20
2019-03-20T02:53:04.849Z,-0.20
2019-03-20T02:55:34.174Z,-0.20
2019-03-20T02:58:05.177Z,-0.30
2019-03-20T03:00:36.131Z,-0.30
2019-03-20T03:03:05.505Z,-0.30
2019-03-20T03:05:34.823Z,-0.30
2019-03-20T03:08:04.196Z,-0.30
2019-03-20T03:10:33.529Z,-0.40
2019-03-20T03:13:02.847Z,-0.40
2019-03-20T03:15:32.367Z,-0.40
2019-03-20T03:18:01.762Z,-0.40
2019-03-20T03:20:31.177Z,-0.40
2019-03-20T03:23:00.570Z,-0.40
2019-03-20T03:25:29.986Z,-0.50
2019-03-20T03:27:59.284Z,-0.50
2019-03-20T03:30:28.647Z,-0.50
2019-03-20T03:32:58.018Z,-0.50
2019-03-20T03:35:27.402Z,-0.50
2019-03-20T03:37:56.713Z,-0.50
2019-03-20T03:40:26.038Z,-0.50
2019-03-20T03:42:55.426Z,-0.50
2019-03-20T03:45:24.735Z,-0.50
2019-03-20T03:47:54.040Z,-0.50
2019-03-20T03:50:23.459Z,-0.50
2019-03-20T03:52:52.843Z,-0.60
2019-03-20T03:55:22.173Z,-0.60
2019-03-20T03:57:52.624Z,-0.50
2019-03-20T04:00:21.968Z,-0.50
2019-03-20T04:02:51.291Z,-0.60
2019-03-20T04:05:20.675Z,-0.50
2019-03-20T04:07:50.059Z,-0.50
2019-03-20T04:10:19.379Z,-0.40
2019-03-20T04:12:48.685Z,-0.50
2019-03-20T04:15:17.999Z,-0.60
2019-03-20T04:17:48.273Z,-0.60
2019-03-20T04:20:18.535Z,-0.70
2019-03-20T04:22:47.976Z,-0.70
2019-03-20T04:25:17.315Z,-0.70
2019-03-20T04:27:46.622Z,-0.70
2019-03-20T04:30:17.076Z,-0.70
2019-03-20T04:32:46.559Z,-0.70
2019-03-20T04:35:15.941Z,-0.70
2019-03-20T04:37:45.254Z,-0.70
2019-03-20T04:40:18.079Z,-0.70
2019-03-20T04:42:47.397Z,-0.80
2019-03-20T04:45:17.177Z,-0.80
2019-03-20T04:47:46.492Z,-0.80
2019-03-20T04:50:16.656Z,-0.80
2019-03-20T04:52:45.957Z,-0.80
2019-03-20T04:55:15.275Z,-0.80
2019-03-20T04:57:45.721Z,-0.80
2019-03-20T05:00:17.969Z,-0.80
2019-03-20T05:02:47.282Z,-0.80
2019-03-20T05:05:16.655Z,-0.80
2019-03-20T05:07:45.962Z,-0.80
2019-03-20T05:10:19.131Z,-0.80
2019-03-20T05:12:48.533Z,-0.80
2019-03-20T05:15:17.874Z,-0.90
2019-03-20T05:17:47.191Z,-0.90
2019-03-20T05:20:20.572Z,-0.90
2019-03-20T05:22:49.889Z,-0.90
2019-03-20T05:25:19.220Z,-0.90
2019-03-20T05:27:49.619Z,-0.90
2019-03-20T05:30:18.936Z,-0.90
2019-03-20T05:32:48.255Z,-0.90
2019-03-20T05:35:17.578Z,-0.90
2019-03-20T05:37:46.906Z,-0.90
2019-03-20T05:40:19.412Z,-0.90
2019-03-20T05:42:48.731Z,-0.80
2019-03-20T05:45:18.989Z,-0.80
2019-03-20T05:47:48.308Z,-0.70
2019-03-20T05:50:18.065Z,-0.70
2019-03-20T05:52:47.390Z,-0.70
2019-03-20T05:55:16.852Z,-0.70
2019-03-20T05:57:46.177Z,-0.70
2019-03-20T06:00:27.228Z,-0.60
2019-03-20T06:02:56.565Z,-0.60
2019-03-20T06:05:25.892Z,-0.50
2019-03-20T06:08:00.847Z,-0.40
2019-03-20T06:10:38.510Z,-0.40
2019-03-20T06:13:08.913Z,-0.30
2019-03-20T06:15:38.278Z,-0.20
2019-03-20T06:18:07.616Z,-0.20
2019-03-20T06:20:38.464Z,0.10
2019-03-20T06:23:11.182Z,0.50
2019-03-20T06:25:41.674Z,1.20
2019-03-20T06:28:12.708Z,1.70
2019-03-20T06:30:43.557Z,2.30
2019-03-20T06:33:16.088Z,3.00
2019-03-20T06:35:55.341Z,3.50
2019-03-20T06:38:30.319Z,3.90
2019-03-20T06:41:12.821Z,4.10
2019-03-20T06:43:44.981Z,4.50
2019-03-20T06:46:20.311Z,5.00
2019-03-20T06:48:51.280Z,5.00
2019-03-20T06:51:26.807Z,5.10
2019-03-20T06:54:02.054Z,5.40
2019-03-20T06:56:35.238Z,5.70
2019-03-20T06:59:30.125Z,5.70
2019-03-20T07:02:09.020Z,6.20
2019-03-20T07:05:08.349Z,7.00
2019-03-20T07:07:46.488Z,7.50
2019-03-20T07:10:29.048Z,8.00
2019-03-20T07:13:06.802Z,7.60
2019-03-20T07:15:38.647Z,7.80
2019-03-20T07:18:24.478Z,7.80
2019-03-20T07:20:55.337Z,8.20
2019-03-20T07:23:27.323Z,8.20
2019-03-20T07:25:57.768Z,8.80
2019-03-20T07:28:37.772Z,8.80
2019-03-20T07:31:15.760Z,8.90
2019-03-20T07:33:42.541Z,9.30
2019-03-20T07:36:13.559Z,9.80
2019-03-20T07:38:46.339Z,9.20
2019-03-20T07:41:17.396Z,9.80
2019-03-20T07:43:48.378Z,9.70
2019-03-20T07:46:21.524Z,10.00
2019-03-20T07:48:50.876Z,10.70
2019-03-20T07:51:28.431Z,10.50
2019-03-20T07:53:59.666Z,10.70
2019-03-20T07:56:35.061Z,11.30
2019-03-20T07:59:05.952Z,11.10
2019-03-20T08:01:40.082Z,10.80
2019-03-20T08:04:12.813Z,10.80
2019-03-20T08:06:48.243Z,11.30
2019-03-20T08:09:17.786Z,11.40
2019-03-20T08:11:47.104Z,11.50
2019-03-20T08:14:16.440Z,12.10
2019-03-20T08:16:45.766Z,12.20
2019-03-20T08:19:19.972Z,12.40
2019-03-20T08:21:52.211Z,12.70
2019-03-20T08:24:22.644Z,13.10
2019-03-20T08:26:53.750Z,13.80
2019-03-20T08:29:23.095Z,13.90
2019-03-20T08:31:52.407Z,14.10
2019-03-20T08:34:21.748Z,13.90
2019-03-20T08:36:51.068Z,13.40
2019-03-20T08:39:20.411Z,13.20
2019-03-20T08:41:49.744Z,13.30
2019-03-20T08:44:19.146Z,13.20
2019-03-20T08:46:48.451Z,13.10
2019-03-20T08:49:17.781Z,13.30
2019-03-20T08:51:47.094Z,13.00
2019-03-20T08:54:16.485Z,12.40
2019-03-20T08:56:46.892Z,12.30
2019-03-20T08:59:18.080Z,12.00
2019-03-20T09:01:47.319Z,12.10
2019-03-20T09:04:17.613Z,12.40
2019-03-20T09:06:46.926Z,12.50
2019-03-20T09:09:16.259Z,12.50
2019-03-20T09:11:45.584Z,12.40
2019-03-20T09:14:14.946Z,12.50
2019-03-20T09:16:44.324Z,12.50
2019-03-20T09:19:13.644Z,12.50
2019-03-20T09:21:42.968Z,12.40
2019-03-20T09:24:12.296Z,12.30
2019-03-20T09:26:41.604Z,12.10
2019-03-20T09:29:18.603Z,12.20
2019-03-20T09:31:41.940Z,12.30
2019-03-20T09:34:11.340Z,12.70
2019-03-20T09:36:43.323Z,12.60
2019-03-20T09:39:11.668Z,13.10
2019-03-20T09:41:41.790Z,13.40
2019-03-20T09:44:11.108Z,13.50
2019-03-20T09:46:40.427Z,13.90
2019-03-20T09:49:09.760Z,13.80
2019-03-20T09:51:41.512Z,13.60
2019-03-20T09:54:10.124Z,13.50
2019-03-20T09:56:39.428Z,13.70
2019-03-20T09:59:08.758Z,14.00
2019-03-20T10:01:39.604Z,14.40
2019-03-20T10:04:08.938Z,14.70
2019-03-20T10:06:38.267Z,14.90
2019-03-20T10:09:08.423Z,15.10
2019-03-20T10:11:37.729Z,14.50
2019-03-20T10:14:07.044Z,14.20
2019-03-20T10:16:36.353Z,13.80
2019-03-20T10:19:05.675Z,13.60
2019-03-20T10:21:34.992Z,13.70
2019-03-20T10:24:04.332Z,13.40
2019-03-20T10:26:33.725Z,13.20
2019-03-20T10:29:03.041Z,13.20
2019-03-20T10:31:32.357Z,13.30
2019-03-20T10:34:01.700Z,13.40
2019-03-20T10:36:31.024Z,13.20
2019-03-20T10:39:06.435Z,13.20
2019-03-20T10:41:32.350Z,13.10
2019-03-20T10:44:01.703Z,13.10
2019-03-20T10:46:32.049Z,13.00
2019-03-20T10:49:01.381Z,13.00
2019-03-20T10:51:30.684Z,12.90
2019-03-20T10:54:00.010Z,12.90
2019-03-20T10:56:29.322Z,12.90
2019-03-20T10:58:58.650Z,12.80
2019-03-20T11:01:27.985Z,12.80
2019-03-20T11:03:57.296Z,12.80
2019-03-20T11:06:26.621Z,12.80
2019-03-20T11:08:55.943Z,12.80
2019-03-20T11:11:27.399Z,12.80
2019-03-20T11:13:56.302Z,12.90
2019-03-20T11:16:25.624Z,12.80
2019-03-20T11:18:54.963Z,12.80
2019-03-20T11:21:24.299Z,12.80
2019-03-20T11:23:53.611Z,12.80
2019-03-20T11:26:22.941Z,12.80
2019-03-20T11:28:52.318Z,12.70
2019-03-20T11:31:21.641Z,12.80
2019-03-20T11:33:50.958Z,13.00
2019-03-20T11:36:20.283Z,12.80
2019-03-20T11:38:49.600Z,12.70
2019-03-20T11:41:20.588Z,12.70
2019-03-20T11:43:49.912Z,12.70
2019-03-20T11:46:19.239Z,12.70
2019-03-20T11:48:48.549Z,12.80
2019-03-20T11:51:17.873Z,12.90
2019-03-20T11:53:47.204Z,12.80
2019-03-20T11:56:16.543Z,12.80
2019-03-20T11:58:45.860Z,12.80
2019-03-20T12:01:15.177Z,12.90
2019-03-20T12:03:44.496Z,12.80
2019-03-20T12:06:13.828Z,12.80
2019-03-20T12:08:43.132Z,12.80
2019-03-20T12:11:12.446Z,13.00
2019-03-20T12:13:41.761Z,13.10
2019-03-20T12:16:11.085Z,13.20
2019-03-20T12:18:40.415Z,13.20
2019-03-20T12:21:09.725Z,13.10
2019-03-20T12:23:39.041Z,13.00
2019-03-20T12:26:08.362Z,12.80
2019-03-20T12:28:37.672Z,12.80
2019-03-20T12:31:07.011Z,12.70
2019-03-20T12:33:36.317Z,12.80
2019-03-20T12:36:05.787Z,12.90
2019-03-20T12:38:35.095Z,12.90
2019-03-20T12:41:04.417Z,12.80
2019-03-20T12:43:45.498Z,12.80
2019-03-20T12:49:56.321Z,13.10
2019-03-20T12:52:56.059Z,13.20
2019-03-20T12:58:37.707Z,13.10
2019-03-20T13:01:23.865Z,12.90
2019-03-20T13:23:17.234Z,12.70
2019-03-20T13:25:51.764Z,12.80
2019-03-20T13:28:34.610Z,12.90
2019-03-20T13:31:34.095Z,13.00
2019-03-20T13:34:05.020Z,13.00
2019-03-20T13:36:36.354Z,13.00
2019-03-20T13:39:50.772Z,12.90
2019-03-20T13:42:29.079Z,12.80
2019-03-20T13:51:21.663Z,12.90
2019-03-20T13:57:34.003Z,12.80
2019-03-20T14:25:17.367Z,12.60
2019-03-20T14:33:45.644Z,12.50
2019-03-20T14:42:49.877Z,12.60
2019-03-20T14:45:51.641Z,12.60
2019-03-20T14:48:35.723Z,12.70
2019-03-20T14:54:15.400Z,12.90
2019-03-20T14:56:55.909Z,12.80
2019-03-20T14:59:33.893Z,12.70
2019-03-20T15:08:32.623Z,12.70
2019-03-20T15:11:15.043Z,12.80
2019-03-20T15:13:54.547Z,12.80
2019-03-20T15:16:25.478Z,12.70
2019-03-20T15:22:43.011Z,12.60
2019-03-20T15:28:40.443Z,12.60
2019-03-20T15:31:40.695Z,12.60
2019-03-20T15:34:19.786Z,12.50
2019-03-20T15:36:56.563Z,12.40
2019-03-20T15:39:28.209Z,12.40
2019-03-20T15:42:15.792Z,12.40
2019-03-20T15:51:24.034Z,12.40
2019-03-20T15:54:12.904Z,12.40
2019-03-20T16:03:51.787Z,12.20
2019-03-20T16:06:33.640Z,12.20
2019-03-20T16:09:18.176Z,12.20
2019-03-20T16:11:54.308Z,12.20
2019-03-20T16:14:43.335Z,12.10
2019-03-20T16:20:33.467Z,12.00
2019-03-20T16:23:34.348Z,12.00
2019-03-20T16:26:12.863Z,11.90
2019-03-20T16:42:11.183Z,12.00
2019-03-20T16:44:49.614Z,12.00
2019-03-20T16:47:18.549Z,12.00
2019-03-20T16:52:57.572Z,12.10
2019-03-20T16:55:31.953Z,12.10
2019-03-20T17:04:00.997Z,12.00
2019-03-20T17:07:09.144Z,12.00
2019-03-20T17:09:42.701Z,11.90
2019-03-20T17:12:37.620Z,11.80
2019-03-20T17:15:18.830Z,11.60
2019-03-20T17:17:57.093Z,11.60
2019-03-20T17:20:30.584Z,11.50
2019-03-20T17:23:00.097Z,11.40
2019-03-20T17:25:42.531Z,11.30
2019-03-20T17:28:16.253Z,11.30
2019-03-20T17:30:48.813Z,11.20
2019-03-20T17:33:53.342Z,11.10
2019-03-20T17:39:39.554Z,10.90
2019-03-20T17:42:22.007Z,10.90
2019-03-20T17:51:58.591Z,10.60
2019-03-20T17:54:43.480Z,10.50
2019-03-20T17:57:18.562Z,10.50
2019-03-20T17:59:58.913Z,10.40
2019-03-20T18:07:08.744Z,10.40
2019-03-20T18:08:18.342Z,10.40
2019-03-20T18:11:12.134Z,10.40
2019-03-20T18:16:57.954Z,10.30
2019-03-20T18:19:34.941Z,10.30
2019-03-20T18:29:00.794Z,10.30
2019-03-20T18:32:20.995Z,10.30
2019-03-20T18:35:01.033Z,10.30
2019-03-20T18:37:53.728Z,10.30
2019-03-20T18:40:30.762Z,10.30
2019-03-20T18:43:19.551Z,10.40
2019-03-20T18:46:22.711Z,10.40
2019-03-20T18:49:23.612Z,10.30
2019-03-20T19:00:43.613Z,10.30
2019-03-20T19:03:50.899Z,10.30
2019-03-20T19:07:03.044Z,10.20
2019-03-20T19:09:37.767Z,10.20
2019-03-20T19:12:10.030Z,10.10
2019-03-20T19:14:49.159Z,10.10
2019-03-20T19:17:38.986Z,10.00
2019-03-20T19:20:12.527Z,10.00
2019-03-20T19:23:14.277Z,10.10
2019-03-20T19:28:38.806Z,10.00
2019-03-20T19:31:12.001Z,10.00
2019-03-20T19:34:30.525Z,10.10
2019-03-20T19:37:31.562Z,10.00
2019-03-20T19:40:10.083Z,10.00
2019-03-20T19:42:46.032Z,10.00
2019-03-20T19:45:58.058Z,10.00
2019-03-20T19:52:07.658Z,9.90
2019-03-20T19:58:05.105Z,9.80
2019-03-20T20:00:38.473Z,9.80
2019-03-20T20:03:08.247Z,9.80
2019-03-20T20:05:40.665Z,9.80
2019-03-20T20:08:10.826Z,9.70
2019-03-20T20:10:43.047Z,9.70
2019-03-20T20:13:16.935Z,9.70
2019-03-20T20:15:46.251Z,9.60
2019-03-20T20:18:15.588Z,9.50
2019-03-20T20:21:02.487Z,9.40
2019-03-20T20:32:41.931Z,8.80
2019-03-20T20:35:58.517Z,8.80
2019-03-20T20:42:17.810Z,8.70
2019-03-20T20:44:50.859Z,8.60
2019-03-20T20:47:27.624Z,8.60
2019-03-20T20:49:57.101Z,8.50
2019-03-20T20:52:48.807Z,8.40
2019-03-20T20:55:41.052Z,8.40
2019-03-20T20:58:21.410Z,8.40
2019-03-20T21:01:03.991Z,8.50
2019-03-20T21:03:45.688Z,8.50
2019-03-20T21:06:23.944Z,8.50
2019-03-20T21:25:56.991Z,8.70
2019-03-20T21:31:36.804Z,8.80
2019-03-20T21:34:30.822Z,8.80
2019-03-20T21:51:48.742Z,8.90
2019-03-20T22:01:27.154Z,8.90
2019-03-20T22:04:11.374Z,8.90
2019-03-20T22:07:27.914Z,8.90
2019-03-20T22:10:18.337Z,8.90
2019-03-20T22:12:54.355Z,8.90
2019-03-20T22:15:47.606Z,8.90
2019-03-20T22:18:45.308Z,8.90
2019-03-20T22:21:29.809Z,8.90
2019-03-20T22:24:21.903Z,8.90
2019-03-20T22:27:11.079Z,8.90
2019-03-20T22:29:40.525Z,8.90
2019-03-20T22:32:15.546Z,8.90
2019-03-20T22:35:18.231Z,8.90
2019-03-20T22:37:47.618Z,8.90
2019-03-20T22:40:20.152Z,8.90
2019-03-20T22:42:55.535Z,8.90
2019-03-20T22:45:47.669Z,8.90
2019-03-20T22:48:32.458Z,8.90
2019-03-20T22:51:24.139Z,8.90
2019-03-20T22:54:14.500Z,9.00
2019-03-20T22:57:01.694Z,8.90
2019-03-20T22:59:31.027Z,8.90
2019-03-20T23:02:03.428Z,8.90
2019-03-20T23:04:38.974Z,9.00
2019-03-20T23:07:10.542Z,9.00
2019-03-20T23:09:39.295Z,8.90
2019-03-20T23:12:10.853Z,8.90
2019-03-20T23:14:40.169Z,8.90
2019-03-20T23:17:09.547Z,8.90
2019-03-20T23:19:40.221Z,8.90
2019-03-20T23:22:09.978Z,8.90
2019-03-20T23:24:39.354Z,8.90
2019-03-20T23:27:17.926Z,8.90
2019-03-20T23:29:47.242Z,8.90
2019-03-20T23:32:17.533Z,8.90
2019-03-20T23:34:46.851Z,8.90
2019-03-20T23:37:16.155Z,8.90
2019-03-20T23:39:45.486Z,8.90
2019-03-20T23:42:14.832Z,8.90
2019-03-20T23:44:45.147Z,8.90
2019-03-20T23:47:14.464Z,8.90
2019-03-20T23:49:43.785Z,8.90
2019-03-20T23:52:14.048Z,8.90
2019-03-20T23:54:44.721Z,8.90
2019-03-20T23:57:14.488Z,8.90
2019-03-20T23:59:43.889Z,8.90
